sensor_id;sensor_type;location;lat;lon;timestamp;pressure;altitude;pressure_sealevel;temperature
44429;BMP180;30134;47.866;-4.222;2023-07-28T00:00:19;100499.00;;;24.90
44429;BMP180;30134;47.866;-4.222;2023-07-28T00:02:44;100505.00;;;24.90
44429;BMP180;30134;47.866;-4.222;2023-07-28T00:05:10;100496.00;;;25.00
44429;BMP180;30134;47.866;-4.222;2023-07-28T00:07:36;100503.00;;;25.00
44429;BMP180;30134;47.866;-4.222;2023-07-28T00:10:03;100501.00;;;24.90
44429;BMP180;30134;47.866;-4.222;2023-07-28T00:12:29;100498.00;;;24.80
44429;BMP180;30134;47.866;-4.222;2023-07-28T00:14:55;100500.00;;;24.80
44429;BMP180;30134;47.866;-4.222;2023-07-28T00:17:21;100506.00;;;24.80
44429;BMP180;30134;47.866;-4.222;2023-07-28T00:19:46;100511.00;;;24.80
44429;BMP180;30134;47.866;-4.222;2023-07-28T00:22:12;100515.00;;;25.00
44429;BMP180;30134;47.866;-4.222;2023-07-28T00:24:38;100514.00;;;25.00
44429;BMP180;30134;47.866;-4.222;2023-07-28T00:27:05;100512.00;;;25.10
44429;BMP180;30134;47.866;-4.222;2023-07-28T00:29:31;100509.00;;;24.80
44429;BMP180;30134;47.866;-4.222;2023-07-28T00:31:56;100513.00;;;24.90
44429;BMP180;30134;47.866;-4.222;2023-07-28T00:34:22;100508.00;;;25.00
44429;BMP180;30134;47.866;-4.222;2023-07-28T00:36:48;100509.00;;;24.80
44429;BMP180;30134;47.866;-4.222;2023-07-28T00:39:14;100500.00;;;24.80
44429;BMP180;30134;47.866;-4.222;2023-07-28T00:41:40;100505.00;;;24.80
44429;BMP180;30134;47.866;-4.222;2023-07-28T00:44:06;100511.00;;;24.90
44429;BMP180;30134;47.866;-4.222;2023-07-28T00:46:32;100512.00;;;24.90
44429;BMP180;30134;47.866;-4.222;2023-07-28T00:48:58;100510.00;;;24.80
44429;BMP180;30134;47.866;-4.222;2023-07-28T00:51:24;100503.00;;;24.90
44429;BMP180;30134;47.866;-4.222;2023-07-28T00:53:50;100501.00;;;24.90
44429;BMP180;30134;47.866;-4.222;2023-07-28T00:56:19;100504.00;;;24.90
44429;BMP180;30134;47.866;-4.222;2023-07-28T00:58:46;100501.00;;;25.00
44429;BMP180;30134;47.866;-4.222;2023-07-28T01:01:13;100509.00;;;24.80
44429;BMP180;30134;47.866;-4.222;2023-07-28T01:03:39;100510.00;;;24.80
44429;BMP180;30134;47.866;-4.222;2023-07-28T01:06:57;100507.00;;;24.80
44429;BMP180;30134;47.866;-4.222;2023-07-28T01:09:39;100509.00;;;24.90
44429;BMP180;30134;47.866;-4.222;2023-07-28T01:12:08;100513.00;;;24.80
44429;BMP180;30134;47.866;-4.222;2023-07-28T01:14:37;100511.00;;;24.70
44429;BMP180;30134;47.866;-4.222;2023-07-28T01:17:03;100508.00;;;24.80
44429;BMP180;30134;47.866;-4.222;2023-07-28T01:19:29;100498.00;;;24.70
44429;BMP180;30134;47.866;-4.222;2023-07-28T01:25:43;100507.00;;;24.80
44429;BMP180;30134;47.866;-4.222;2023-07-28T01:28:11;100505.00;;;24.70
44429;BMP180;30134;47.866;-4.222;2023-07-28T01:30:40;100494.00;;;24.70
44429;BMP180;30134;47.866;-4.222;2023-07-28T01:33:07;100501.00;;;24.80
44429;BMP180;30134;47.866;-4.222;2023-07-28T01:35:37;100502.00;;;24.70
44429;BMP180;30134;47.866;-4.222;2023-07-28T01:38:06;100503.00;;;24.80
44429;BMP180;30134;47.866;-4.222;2023-07-28T01:40:32;100508.00;;;24.80
44429;BMP180;30134;47.866;-4.222;2023-07-28T01:42:58;100506.00;;;24.70
44429;BMP180;30134;47.866;-4.222;2023-07-28T01:45:25;100507.00;;;24.70
44429;BMP180;30134;47.866;-4.222;2023-07-28T01:47:51;100506.00;;;24.80
44429;BMP180;30134;47.866;-4.222;2023-07-28T01:50:17;100513.00;;;24.80
44429;BMP180;30134;47.866;-4.222;2023-07-28T01:52:43;100509.00;;;24.70
44429;BMP180;30134;47.866;-4.222;2023-07-28T01:55:09;100512.00;;;24.70
44429;BMP180;30134;47.866;-4.222;2023-07-28T01:57:38;100506.00;;;24.80
44429;BMP180;30134;47.866;-4.222;2023-07-28T02:00:05;100512.00;;;24.70
44429;BMP180;30134;47.866;-4.222;2023-07-28T02:02:31;100512.00;;;24.70
44429;BMP180;30134;47.866;-4.222;2023-07-28T02:04:57;100507.00;;;24.70
44429;BMP180;30134;47.866;-4.222;2023-07-28T02:07:23;100515.00;;;24.80
44429;BMP180;30134;47.866;-4.222;2023-07-28T02:09:48;100508.00;;;24.80
44429;BMP180;30134;47.866;-4.222;2023-07-28T02:12:14;100507.00;;;24.80
44429;BMP180;30134;47.866;-4.222;2023-07-28T02:14:40;100512.00;;;24.60
44429;BMP180;30134;47.866;-4.222;2023-07-28T02:17:06;100509.00;;;24.70
44429;BMP180;30134;47.866;-4.222;2023-07-28T02:19:32;100503.00;;;24.80
44429;BMP180;30134;47.866;-4.222;2023-07-28T02:21:58;100502.00;;;24.90
44429;BMP180;30134;47.866;-4.222;2023-07-28T02:24:24;100495.00;;;24.80
44429;BMP180;30134;47.866;-4.222;2023-07-28T02:26:50;100492.00;;;24.80
44429;BMP180;30134;47.866;-4.222;2023-07-28T02:29:16;100499.00;;;24.70
44429;BMP180;30134;47.866;-4.222;2023-07-28T02:31:42;100493.00;;;24.70
44429;BMP180;30134;47.866;-4.222;2023-07-28T02:34:07;100498.00;;;24.80
44429;BMP180;30134;47.866;-4.222;2023-07-28T02:36:33;100493.00;;;24.70
44429;BMP180;30134;47.866;-4.222;2023-07-28T02:38:59;100488.00;;;24.70
44429;BMP180;30134;47.866;-4.222;2023-07-28T02:41:25;100494.00;;;24.80
44429;BMP180;30134;47.866;-4.222;2023-07-28T02:44:05;100491.00;;;24.60
44429;BMP180;30134;47.866;-4.222;2023-07-28T02:46:38;100483.00;;;24.70
44429;BMP180;30134;47.866;-4.222;2023-07-28T02:49:04;100485.00;;;24.80
44429;BMP180;30134;47.866;-4.222;2023-07-28T02:51:30;100482.00;;;24.70
44429;BMP180;30134;47.866;-4.222;2023-07-28T02:53:56;100478.00;;;24.70
44429;BMP180;30134;47.866;-4.222;2023-07-28T02:56:22;100479.00;;;24.80
44429;BMP180;30134;47.866;-4.222;2023-07-28T02:58:49;100479.00;;;24.70
44429;BMP180;30134;47.866;-4.222;2023-07-28T03:01:15;100476.00;;;24.80
44429;BMP180;30134;47.866;-4.222;2023-07-28T03:03:40;100473.00;;;24.70
44429;BMP180;30134;47.866;-4.222;2023-07-28T03:06:06;100469.00;;;24.70
44429;BMP180;30134;47.866;-4.222;2023-07-28T03:08:32;100478.00;;;24.70
44429;BMP180;30134;47.866;-4.222;2023-07-28T03:10:59;100483.00;;;24.60
44429;BMP180;30134;47.866;-4.222;2023-07-28T03:13:25;100480.00;;;24.80
44429;BMP180;30134;47.866;-4.222;2023-07-28T03:15:50;100477.00;;;24.80
44429;BMP180;30134;47.866;-4.222;2023-07-28T03:18:16;100477.00;;;24.70
44429;BMP180;30134;47.866;-4.222;2023-07-28T03:20:42;100473.00;;;24.80
44429;BMP180;30134;47.866;-4.222;2023-07-28T03:23:08;100471.00;;;24.60
44429;BMP180;30134;47.866;-4.222;2023-07-28T03:25:34;100467.00;;;24.60
44429;BMP180;30134;47.866;-4.222;2023-07-28T03:28:00;100468.00;;;24.80
44429;BMP180;30134;47.866;-4.222;2023-07-28T03:30:26;100468.00;;;24.80
44429;BMP180;30134;47.866;-4.222;2023-07-28T03:32:52;100469.00;;;24.70
44429;BMP180;30134;47.866;-4.222;2023-07-28T03:35:18;100473.00;;;24.80
44429;BMP180;30134;47.866;-4.222;2023-07-28T03:37:44;100467.00;;;24.60
44429;BMP180;30134;47.866;-4.222;2023-07-28T03:40:10;100465.00;;;24.60
44429;BMP180;30134;47.866;-4.222;2023-07-28T03:42:36;100470.00;;;24.60
44429;BMP180;30134;47.866;-4.222;2023-07-28T03:45:02;100463.00;;;24.70
44429;BMP180;30134;47.866;-4.222;2023-07-28T03:47:28;100465.00;;;24.70
44429;BMP180;30134;47.866;-4.222;2023-07-28T03:49:54;100460.00;;;24.70
44429;BMP180;30134;47.866;-4.222;2023-07-28T03:52:20;100468.00;;;24.80
44429;BMP180;30134;47.866;-4.222;2023-07-28T03:54:46;100466.00;;;24.70
44429;BMP180;30134;47.866;-4.222;2023-07-28T03:57:12;100468.00;;;24.80
44429;BMP180;30134;47.866;-4.222;2023-07-28T03:59:38;100462.00;;;24.70
44429;BMP180;30134;47.866;-4.222;2023-07-28T04:02:05;100463.00;;;24.60
44429;BMP180;30134;47.866;-4.222;2023-07-28T04:04:31;100460.00;;;24.60
44429;BMP180;30134;47.866;-4.222;2023-07-28T04:06:57;100467.00;;;24.60
44429;BMP180;30134;47.866;-4.222;2023-07-28T04:09:23;100466.00;;;24.70
44429;BMP180;30134;47.866;-4.222;2023-07-28T04:11:49;100465.00;;;24.70
44429;BMP180;30134;47.866;-4.222;2023-07-28T04:14:15;100462.00;;;24.70
44429;BMP180;30134;47.866;-4.222;2023-07-28T04:16:41;100463.00;;;24.70
44429;BMP180;30134;47.866;-4.222;2023-07-28T04:19:07;100457.00;;;24.70
44429;BMP180;30134;47.866;-4.222;2023-07-28T04:21:33;100456.00;;;24.70
44429;BMP180;30134;47.866;-4.222;2023-07-28T04:24:09;100456.00;;;24.60
44429;BMP180;30134;47.866;-4.222;2023-07-28T04:26:35;100460.00;;;24.70
44429;BMP180;30134;47.866;-4.222;2023-07-28T04:29:01;100467.00;;;24.80
44429;BMP180;30134;47.866;-4.222;2023-07-28T04:31:27;100454.00;;;24.70
44429;BMP180;30134;47.866;-4.222;2023-07-28T04:33:53;100447.00;;;24.70
44429;BMP180;30134;47.866;-4.222;2023-07-28T04:36:19;100451.00;;;24.70
44429;BMP180;30134;47.866;-4.222;2023-07-28T04:38:45;100448.00;;;24.70
44429;BMP180;30134;47.866;-4.222;2023-07-28T04:41:11;100445.00;;;24.60
44429;BMP180;30134;47.866;-4.222;2023-07-28T04:43:37;100449.00;;;24.70
44429;BMP180;30134;47.866;-4.222;2023-07-28T04:46:03;100460.00;;;24.60
44429;BMP180;30134;47.866;-4.222;2023-07-28T04:48:29;100465.00;;;24.60
44429;BMP180;30134;47.866;-4.222;2023-07-28T04:50:55;100460.00;;;24.70
44429;BMP180;30134;47.866;-4.222;2023-07-28T04:53:21;100468.00;;;24.80
44429;BMP180;30134;47.866;-4.222;2023-07-28T04:55:47;100467.00;;;24.80
44429;BMP180;30134;47.866;-4.222;2023-07-28T04:58:13;100467.00;;;24.80
44429;BMP180;30134;47.866;-4.222;2023-07-28T05:00:39;100459.00;;;24.90
44429;BMP180;30134;47.866;-4.222;2023-07-28T05:03:05;100457.00;;;24.80
44429;BMP180;30134;47.866;-4.222;2023-07-28T05:05:32;100467.00;;;24.70
44429;BMP180;30134;47.866;-4.222;2023-07-28T05:07:58;100462.00;;;24.70
44429;BMP180;30134;47.866;-4.222;2023-07-28T05:10:26;100465.00;;;24.60
44429;BMP180;30134;47.866;-4.222;2023-07-28T05:12:52;100469.00;;;24.70
44429;BMP180;30134;47.866;-4.222;2023-07-28T05:15:18;100469.00;;;24.70
44429;BMP180;30134;47.866;-4.222;2023-07-28T05:17:44;100464.00;;;24.60
44429;BMP180;30134;47.866;-4.222;2023-07-28T05:20:11;100466.00;;;24.60
44429;BMP180;30134;47.866;-4.222;2023-07-28T05:22:37;100465.00;;;24.60
44429;BMP180;30134;47.866;-4.222;2023-07-28T05:25:03;100471.00;;;24.70
44429;BMP180;30134;47.866;-4.222;2023-07-28T05:27:29;100475.00;;;24.60
44429;BMP180;30134;47.866;-4.222;2023-07-28T05:29:55;100479.00;;;24.80
44429;BMP180;30134;47.866;-4.222;2023-07-28T05:32:21;100478.00;;;24.70
44429;BMP180;30134;47.866;-4.222;2023-07-28T05:34:47;100483.00;;;24.80
44429;BMP180;30134;47.866;-4.222;2023-07-28T05:37:14;100485.00;;;24.70
44429;BMP180;30134;47.866;-4.222;2023-07-28T05:39:39;100491.00;;;24.80
44429;BMP180;30134;47.866;-4.222;2023-07-28T05:42:06;100493.00;;;24.70
44429;BMP180;30134;47.866;-4.222;2023-07-28T05:44:33;100495.00;;;24.60
44429;BMP180;30134;47.866;-4.222;2023-07-28T05:46:59;100502.00;;;24.80
44429;BMP180;30134;47.866;-4.222;2023-07-28T05:49:25;100505.00;;;24.70
44429;BMP180;30134;47.866;-4.222;2023-07-28T05:51:51;100505.00;;;24.60
44429;BMP180;30134;47.866;-4.222;2023-07-28T05:54:17;100509.00;;;24.60
44429;BMP180;30134;47.866;-4.222;2023-07-28T05:56:43;100512.00;;;24.60
44429;BMP180;30134;47.866;-4.222;2023-07-28T05:59:12;100513.00;;;24.60
44429;BMP180;30134;47.866;-4.222;2023-07-28T06:01:38;100517.00;;;24.60
44429;BMP180;30134;47.866;-4.222;2023-07-28T06:04:04;100525.00;;;24.70
44429;BMP180;30134;47.866;-4.222;2023-07-28T06:06:30;100520.00;;;24.60
44429;BMP180;30134;47.866;-4.222;2023-07-28T06:08:56;100528.00;;;24.60
44429;BMP180;30134;47.866;-4.222;2023-07-28T06:11:22;100527.00;;;24.70
44429;BMP180;30134;47.866;-4.222;2023-07-28T06:13:48;100513.00;;;24.70
44429;BMP180;30134;47.866;-4.222;2023-07-28T06:16:15;100512.00;;;24.70
44429;BMP180;30134;47.866;-4.222;2023-07-28T06:18:41;100515.00;;;24.70
44429;BMP180;30134;47.866;-4.222;2023-07-28T06:21:07;100524.00;;;24.60
44429;BMP180;30134;47.866;-4.222;2023-07-28T06:23:33;100521.00;;;24.70
44429;BMP180;30134;47.866;-4.222;2023-07-28T06:25:59;100520.00;;;24.60
44429;BMP180;30134;47.866;-4.222;2023-07-28T06:28:25;100518.00;;;24.70
44429;BMP180;30134;47.866;-4.222;2023-07-28T06:30:56;100515.00;;;24.80
44429;BMP180;30134;47.866;-4.222;2023-07-28T06:33:25;100520.00;;;24.60
44429;BMP180;30134;47.866;-4.222;2023-07-28T06:35:51;100513.00;;;24.60
44429;BMP180;30134;47.866;-4.222;2023-07-28T06:38:18;100512.00;;;24.70
44429;BMP180;30134;47.866;-4.222;2023-07-28T06:40:44;100518.00;;;24.60
44429;BMP180;30134;47.866;-4.222;2023-07-28T06:43:10;100516.00;;;24.70
44429;BMP180;30134;47.866;-4.222;2023-07-28T06:45:36;100524.00;;;24.80
44429;BMP180;30134;47.866;-4.222;2023-07-28T06:48:03;100523.00;;;24.70
44429;BMP180;30134;47.866;-4.222;2023-07-28T06:50:29;100528.00;;;24.80
44429;BMP180;30134;47.866;-4.222;2023-07-28T06:52:55;100533.00;;;24.80
44429;BMP180;30134;47.866;-4.222;2023-07-28T06:55:23;100526.00;;;24.80
44429;BMP180;30134;47.866;-4.222;2023-07-28T06:57:49;100526.00;;;24.70
44429;BMP180;30134;47.866;-4.222;2023-07-28T07:00:16;100536.00;;;24.70
44429;BMP180;30134;47.866;-4.222;2023-07-28T07:02:44;100546.00;;;24.60
44429;BMP180;30134;47.866;-4.222;2023-07-28T07:05:10;100543.00;;;24.60
44429;BMP180;30134;47.866;-4.222;2023-07-28T07:07:38;100548.00;;;24.70
44429;BMP180;30134;47.866;-4.222;2023-07-28T07:10:05;100554.00;;;24.70
44429;BMP180;30134;47.866;-4.222;2023-07-28T07:12:32;100561.00;;;24.80
44429;BMP180;30134;47.866;-4.222;2023-07-28T07:14:58;100567.00;;;24.70
44429;BMP180;30134;47.866;-4.222;2023-07-28T07:17:24;100560.00;;;24.70
44429;BMP180;30134;47.866;-4.222;2023-07-28T07:19:49;100559.00;;;24.70
44429;BMP180;30134;47.866;-4.222;2023-07-28T07:22:15;100555.00;;;24.70
44429;BMP180;30134;47.866;-4.222;2023-07-28T07:24:42;100558.00;;;24.70
44429;BMP180;30134;47.866;-4.222;2023-07-28T07:27:08;100555.00;;;24.70
44429;BMP180;30134;47.866;-4.222;2023-07-28T07:29:38;100569.00;;;24.70
44429;BMP180;30134;47.866;-4.222;2023-07-28T07:32:06;100559.00;;;24.60
44429;BMP180;30134;47.866;-4.222;2023-07-28T07:34:34;100557.00;;;24.90
44429;BMP180;30134;47.866;-4.222;2023-07-28T07:37:00;100560.00;;;24.80
44429;BMP180;30134;47.866;-4.222;2023-07-28T07:39:27;100560.00;;;24.60
44429;BMP180;30134;47.866;-4.222;2023-07-28T07:41:53;100564.00;;;24.70
44429;BMP180;30134;47.866;-4.222;2023-07-28T07:44:19;100564.00;;;24.50
44429;BMP180;30134;47.866;-4.222;2023-07-28T07:46:45;100564.00;;;24.60
44429;BMP180;30134;47.866;-4.222;2023-07-28T07:49:11;100564.00;;;24.50
44429;BMP180;30134;47.866;-4.222;2023-07-28T07:51:37;100562.00;;;24.70
44429;BMP180;30134;47.866;-4.222;2023-07-28T07:54:03;100565.00;;;24.60
44429;BMP180;30134;47.866;-4.222;2023-07-28T07:56:29;100565.00;;;24.60
44429;BMP180;30134;47.866;-4.222;2023-07-28T07:58:55;100562.00;;;24.70
44429;BMP180;30134;47.866;-4.222;2023-07-28T08:01:21;100566.00;;;24.70
44429;BMP180;30134;47.866;-4.222;2023-07-28T08:03:47;100566.00;;;24.70
44429;BMP180;30134;47.866;-4.222;2023-07-28T08:06:13;100571.00;;;24.80
44429;BMP180;30134;47.866;-4.222;2023-07-28T08:08:39;100572.00;;;24.80
44429;BMP180;30134;47.866;-4.222;2023-07-28T08:11:06;100566.00;;;24.70
44429;BMP180;30134;47.866;-4.222;2023-07-28T08:13:33;100580.00;;;24.80
44429;BMP180;30134;47.866;-4.222;2023-07-28T08:15:59;100576.00;;;24.80
44429;BMP180;30134;47.866;-4.222;2023-07-28T08:18:25;100575.00;;;24.80
44429;BMP180;30134;47.866;-4.222;2023-07-28T08:20:51;100570.00;;;24.60
44429;BMP180;30134;47.866;-4.222;2023-07-28T08:23:17;100576.00;;;24.70
44429;BMP180;30134;47.866;-4.222;2023-07-28T08:25:43;100587.00;;;24.80
44429;BMP180;30134;47.866;-4.222;2023-07-28T08:28:09;100581.00;;;24.70
44429;BMP180;30134;47.866;-4.222;2023-07-28T08:30:35;100583.00;;;24.80
44429;BMP180;30134;47.866;-4.222;2023-07-28T08:33:01;100587.00;;;24.80
44429;BMP180;30134;47.866;-4.222;2023-07-28T08:35:27;100595.00;;;24.80
44429;BMP180;30134;47.866;-4.222;2023-07-28T08:37:53;100594.00;;;24.80
44429;BMP180;30134;47.866;-4.222;2023-07-28T08:40:19;100601.00;;;24.80
44429;BMP180;30134;47.866;-4.222;2023-07-28T08:42:46;100597.00;;;24.70
44429;BMP180;30134;47.866;-4.222;2023-07-28T08:45:12;100583.00;;;24.90
44429;BMP180;30134;47.866;-4.222;2023-07-28T08:47:45;100591.00;;;24.90
44429;BMP180;30134;47.866;-4.222;2023-07-28T08:50:11;100594.00;;;24.80
44429;BMP180;30134;47.866;-4.222;2023-07-28T08:52:37;100595.00;;;24.70
44429;BMP180;30134;47.866;-4.222;2023-07-28T08:55:04;100605.00;;;24.90
44429;BMP180;30134;47.866;-4.222;2023-07-28T08:57:30;100604.00;;;24.80
44429;BMP180;30134;47.866;-4.222;2023-07-28T08:59:56;100602.00;;;24.70
44429;BMP180;30134;47.866;-4.222;2023-07-28T09:02:22;100603.00;;;24.80
44429;BMP180;30134;47.866;-4.222;2023-07-28T09:04:48;100601.00;;;24.90
44429;BMP180;30134;47.866;-4.222;2023-07-28T09:07:15;100595.00;;;24.80
44429;BMP180;30134;47.866;-4.222;2023-07-28T09:09:41;100593.00;;;24.80
44429;BMP180;30134;47.866;-4.222;2023-07-28T09:12:08;100594.00;;;24.80
44429;BMP180;30134;47.866;-4.222;2023-07-28T09:14:38;100596.00;;;24.90
44429;BMP180;30134;47.866;-4.222;2023-07-28T09:17:12;100605.00;;;24.90
44429;BMP180;30134;47.866;-4.222;2023-07-28T09:19:53;100606.00;;;24.90
44429;BMP180;30134;47.866;-4.222;2023-07-28T09:22:20;100600.00;;;24.90
44429;BMP180;30134;47.866;-4.222;2023-07-28T09:24:47;100603.00;;;24.90
44429;BMP180;30134;47.866;-4.222;2023-07-28T09:27:25;100612.00;;;24.80
44429;BMP180;30134;47.866;-4.222;2023-07-28T09:29:55;100602.00;;;24.90
44429;BMP180;30134;47.866;-4.222;2023-07-28T09:32:30;100600.00;;;24.90
44429;BMP180;30134;47.866;-4.222;2023-07-28T09:35:12;100606.00;;;24.90
44429;BMP180;30134;47.866;-4.222;2023-07-28T09:37:41;100598.00;;;24.80
44429;BMP180;30134;47.866;-4.222;2023-07-28T09:40:10;100607.00;;;24.80
44429;BMP180;30134;47.866;-4.222;2023-07-28T09:42:41;100603.00;;;24.90
44429;BMP180;30134;47.866;-4.222;2023-07-28T09:45:09;100603.00;;;24.80
44429;BMP180;30134;47.866;-4.222;2023-07-28T09:47:37;100611.00;;;25.00
44429;BMP180;30134;47.866;-4.222;2023-07-28T09:50:08;100616.00;;;24.90
44429;BMP180;30134;47.866;-4.222;2023-07-28T09:52:46;100614.00;;;24.80
44429;BMP180;30134;47.866;-4.222;2023-07-28T09:55:13;100617.00;;;24.80
44429;BMP180;30134;47.866;-4.222;2023-07-28T09:57:50;100617.00;;;24.70
44429;BMP180;30134;47.866;-4.222;2023-07-28T10:00:18;100621.00;;;24.70
44429;BMP180;30134;47.866;-4.222;2023-07-28T10:02:45;100617.00;;;24.80
44429;BMP180;30134;47.866;-4.222;2023-07-28T10:05:12;100618.00;;;24.90
44429;BMP180;30134;47.866;-4.222;2023-07-28T10:07:43;100626.00;;;24.80
44429;BMP180;30134;47.866;-4.222;2023-07-28T10:10:14;100629.00;;;24.80
44429;BMP180;30134;47.866;-4.222;2023-07-28T10:12:48;100624.00;;;24.90
44429;BMP180;30134;47.866;-4.222;2023-07-28T10:15:30;100625.00;;;24.60
44429;BMP180;30134;47.866;-4.222;2023-07-28T10:17:59;100631.00;;;24.80
44429;BMP180;30134;47.866;-4.222;2023-07-28T10:20:36;100632.00;;;24.80
44429;BMP180;30134;47.866;-4.222;2023-07-28T10:23:11;100626.00;;;24.70
44429;BMP180;30134;47.866;-4.222;2023-07-28T10:25:39;100619.00;;;24.80
44429;BMP180;30134;47.866;-4.222;2023-07-28T10:30:55;100627.00;;;24.80
44429;BMP180;30134;47.866;-4.222;2023-07-28T10:33:37;100625.00;;;24.80
44429;BMP180;30134;47.866;-4.222;2023-07-28T10:36:17;100619.00;;;24.70
44429;BMP180;30134;47.866;-4.222;2023-07-28T10:38:43;100628.00;;;24.80
44429;BMP180;30134;47.866;-4.222;2023-07-28T10:43:39;100627.00;;;24.80
44429;BMP180;30134;47.866;-4.222;2023-07-28T10:46:08;100630.00;;;24.80
44429;BMP180;30134;47.866;-4.222;2023-07-28T10:48:44;100633.00;;;24.80
44429;BMP180;30134;47.866;-4.222;2023-07-28T10:51:11;100633.00;;;24.80
44429;BMP180;30134;47.866;-4.222;2023-07-28T10:53:38;100626.00;;;24.90
44429;BMP180;30134;47.866;-4.222;2023-07-28T10:56:05;100623.00;;;24.80
44429;BMP180;30134;47.866;-4.222;2023-07-28T10:58:34;100634.00;;;24.90
44429;BMP180;30134;47.866;-4.222;2023-07-28T11:01:03;100632.00;;;24.80
44429;BMP180;30134;47.866;-4.222;2023-07-28T11:03:29;100628.00;;;25.00
44429;BMP180;30134;47.866;-4.222;2023-07-28T11:05:55;100631.00;;;24.90
44429;BMP180;30134;47.866;-4.222;2023-07-28T11:08:22;100624.00;;;24.90
44429;BMP180;30134;47.866;-4.222;2023-07-28T11:10:49;100616.00;;;24.60
44429;BMP180;30134;47.866;-4.222;2023-07-28T11:13:15;100612.00;;;24.50
44429;BMP180;30134;47.866;-4.222;2023-07-28T11:15:41;100616.00;;;24.60
44429;BMP180;30134;47.866;-4.222;2023-07-28T11:18:07;100617.00;;;24.80
44429;BMP180;30134;47.866;-4.222;2023-07-28T11:20:35;100606.00;;;24.90
44429;BMP180;30134;47.866;-4.222;2023-07-28T11:23:04;100599.00;;;24.70
44429;BMP180;30134;47.866;-4.222;2023-07-28T11:25:32;100603.00;;;24.80
44429;BMP180;30134;47.866;-4.222;2023-07-28T11:28:04;100606.00;;;24.80
44429;BMP180;30134;47.866;-4.222;2023-07-28T11:30:32;100610.00;;;24.90
44429;BMP180;30134;47.866;-4.222;2023-07-28T11:32:58;100613.00;;;24.90
44429;BMP180;30134;47.866;-4.222;2023-07-28T11:35:24;100619.00;;;24.70
44429;BMP180;30134;47.866;-4.222;2023-07-28T11:37:52;100619.00;;;24.80
44429;BMP180;30134;47.866;-4.222;2023-07-28T11:40:21;100615.00;;;24.80
44429;BMP180;30134;47.866;-4.222;2023-07-28T11:42:54;100609.00;;;24.60
44429;BMP180;30134;47.866;-4.222;2023-07-28T11:45:21;100618.00;;;24.40
44429;BMP180;30134;47.866;-4.222;2023-07-28T11:50:31;100635.00;;;24.70
44429;BMP180;30134;47.866;-4.222;2023-07-28T11:53:00;100634.00;;;24.40
44429;BMP180;30134;47.866;-4.222;2023-07-28T11:55:26;100636.00;;;24.60
44429;BMP180;30134;47.866;-4.222;2023-07-28T11:57:53;100633.00;;;24.90
44429;BMP180;30134;47.866;-4.222;2023-07-28T12:00:33;100642.00;;;24.70
44429;BMP180;30134;47.866;-4.222;2023-07-28T12:03:10;100640.00;;;24.70
44429;BMP180;30134;47.866;-4.222;2023-07-28T12:08:37;100642.00;;;24.70
44429;BMP180;30134;47.866;-4.222;2023-07-28T12:11:03;100649.00;;;24.80
44429;BMP180;30134;47.866;-4.222;2023-07-28T12:13:29;100638.00;;;24.80
44429;BMP180;30134;47.866;-4.222;2023-07-28T12:15:55;100637.00;;;24.80
44429;BMP180;30134;47.866;-4.222;2023-07-28T12:18:21;100642.00;;;24.70
44429;BMP180;30134;47.866;-4.222;2023-07-28T12:20:53;100636.00;;;24.70
44429;BMP180;30134;47.866;-4.222;2023-07-28T12:23:23;100634.00;;;24.70
44429;BMP180;30134;47.866;-4.222;2023-07-28T12:25:49;100633.00;;;25.00
44429;BMP180;30134;47.866;-4.222;2023-07-28T12:28:16;100635.00;;;25.10
44429;BMP180;30134;47.866;-4.222;2023-07-28T12:30:42;100636.00;;;25.30
44429;BMP180;30134;47.866;-4.222;2023-07-28T12:33:10;100634.00;;;25.30
44429;BMP180;30134;47.866;-4.222;2023-07-28T12:35:37;100638.00;;;25.40
44429;BMP180;30134;47.866;-4.222;2023-07-28T12:38:04;100644.00;;;25.40
44429;BMP180;30134;47.866;-4.222;2023-07-28T12:40:32;100641.00;;;25.50
44429;BMP180;30134;47.866;-4.222;2023-07-28T12:43:02;100644.00;;;25.50
44429;BMP180;30134;47.866;-4.222;2023-07-28T12:45:29;100639.00;;;25.70
44429;BMP180;30134;47.866;-4.222;2023-07-28T12:47:56;100641.00;;;25.60
44429;BMP180;30134;47.866;-4.222;2023-07-28T12:50:23;100644.00;;;25.70
44429;BMP180;30134;47.866;-4.222;2023-07-28T12:52:50;100641.00;;;25.70
44429;BMP180;30134;47.866;-4.222;2023-07-28T12:55:17;100647.00;;;25.70
44429;BMP180;30134;47.866;-4.222;2023-07-28T12:57:44;100641.00;;;25.80
44429;BMP180;30134;47.866;-4.222;2023-07-28T13:00:11;100649.00;;;25.80
44429;BMP180;30134;47.866;-4.222;2023-07-28T13:02:45;100651.00;;;25.90
44429;BMP180;30134;47.866;-4.222;2023-07-28T13:05:13;100651.00;;;25.90
44429;BMP180;30134;47.866;-4.222;2023-07-28T13:07:41;100654.00;;;25.90
44429;BMP180;30134;47.866;-4.222;2023-07-28T13:10:09;100655.00;;;26.00
44429;BMP180;30134;47.866;-4.222;2023-07-28T13:12:37;100655.00;;;26.00
44429;BMP180;30134;47.866;-4.222;2023-07-28T13:15:03;100658.00;;;26.00
44429;BMP180;30134;47.866;-4.222;2023-07-28T13:17:29;100663.00;;;26.10
44429;BMP180;30134;47.866;-4.222;2023-07-28T13:19:56;100664.00;;;26.10
44429;BMP180;30134;47.866;-4.222;2023-07-28T13:22:25;100654.00;;;26.10
44429;BMP180;30134;47.866;-4.222;2023-07-28T13:24:53;100670.00;;;26.10
44429;BMP180;30134;47.866;-4.222;2023-07-28T13:27:20;100659.00;;;26.20
44429;BMP180;30134;47.866;-4.222;2023-07-28T13:29:46;100653.00;;;26.20
44429;BMP180;30134;47.866;-4.222;2023-07-28T13:32:23;100655.00;;;26.20
44429;BMP180;30134;47.866;-4.222;2023-07-28T13:34:50;100647.00;;;26.20
44429;BMP180;30134;47.866;-4.222;2023-07-28T13:37:17;100643.00;;;26.20
44429;BMP180;30134;47.866;-4.222;2023-07-28T13:39:44;100646.00;;;26.20
44429;BMP180;30134;47.866;-4.222;2023-07-28T13:42:11;100653.00;;;26.30
44429;BMP180;30134;47.866;-4.222;2023-07-28T13:44:38;100651.00;;;26.40
44429;BMP180;30134;47.866;-4.222;2023-07-28T13:47:04;100649.00;;;26.30
44429;BMP180;30134;47.866;-4.222;2023-07-28T13:49:31;100657.00;;;26.30
44429;BMP180;30134;47.866;-4.222;2023-07-28T13:52:02;100646.00;;;26.40
44429;BMP180;30134;47.866;-4.222;2023-07-28T13:54:29;100653.00;;;26.40
44429;BMP180;30134;47.866;-4.222;2023-07-28T13:56:55;100632.00;;;26.40
44429;BMP180;30134;47.866;-4.222;2023-07-28T13:59:21;100640.00;;;26.40